North Weymouth, Massachusetts
Current Conditions -  °F | °C
As of 8:54 PM on Thursday 20 Nov 2014 (Local Time) from KBOS Reporting Station
Scattered Clouds Scattered Clouds  
Wind Chill: 27°   Ceiling: Unl
Heat Index: 35°   Visibility: 10mi
Dew Point: 18°   Wind: 10mph
Humidity: 50%   Direction: 310°NW
Pressure: 29.9"   Gusts: NA
Location:  42.2435°N, 70.9438°W
Report Text: KBOS 210154Z 31009KT 10SM SCT080 02/M08 A2990 RMK AO2 SLP126 T00171078
Loading
Personal Weather Stations






























Interactive Weather Map New forecast layout! Learn more

10-Day Weather Forecast

Advertisements
Track Severe Weather on mobile